sensor_id;sensor_type;location;lat;lon;timestamp;temperature;humidity
6627;DHT22;3349;49.830;8.748;2022-10-22T00:02:16;14.70;99.90
6627;DHT22;3349;49.830;8.748;2022-10-22T00:04:45;14.80;99.90
6627;DHT22;3349;49.830;8.748;2022-10-22T00:07:12;14.90;99.90
6627;DHT22;3349;49.830;8.748;2022-10-22T00:09:39;14.90;99.90
6627;DHT22;3349;49.830;8.748;2022-10-22T00:12:06;15.00;99.90
6627;DHT22;3349;49.830;8.748;2022-10-22T00:14:34;15.00;99.90
6627;DHT22;3349;49.830;8.748;2022-10-22T00:17:01;15.00;99.90
6627;DHT22;3349;49.830;8.748;2022-10-22T00:19:28;15.00;99.90
6627;DHT22;3349;49.830;8.748;2022-10-22T00:21:54;15.00;99.90
6627;DHT22;3349;49.830;8.748;2022-10-22T00:24:22;15.00;99.90
6627;DHT22;3349;49.830;8.748;2022-10-22T00:26:49;15.00;99.90
6627;DHT22;3349;49.830;8.748;2022-10-22T00:29:16;15.10;99.90
6627;DHT22;3349;49.830;8.748;2022-10-22T00:31:45;15.20;99.90
6627;DHT22;3349;49.830;8.748;2022-10-22T00:34:14;15.30;99.90
6627;DHT22;3349;49.830;8.748;2022-10-22T00:36:41;15.30;98.80
6627;DHT22;3349;49.830;8.748;2022-10-22T00:39:08;15.30;97.00
6627;DHT22;3349;49.830;8.748;2022-10-22T00:41:35;15.30;97.10
6627;DHT22;3349;49.830;8.748;2022-10-22T00:44:03;15.30;96.80
6627;DHT22;3349;49.830;8.748;2022-10-22T00:46:30;15.30;96.10
6627;DHT22;3349;49.830;8.748;2022-10-22T00:49:01;15.40;96.20
6627;DHT22;3349;49.830;8.748;2022-10-22T00:51:31;15.30;94.30
6627;DHT22;3349;49.830;8.748;2022-10-22T00:54:02;15.40;94.00
6627;DHT22;3349;49.830;8.748;2022-10-22T00:56:30;15.30;94.40
6627;DHT22;3349;49.830;8.748;2022-10-22T00:58:58;15.30;94.80
6627;DHT22;3349;49.830;8.748;2022-10-22T01:01:28;15.30;94.70
6627;DHT22;3349;49.830;8.748;2022-10-22T01:03:56;15.30;94.30
6627;DHT22;3349;49.830;8.748;2022-10-22T01:06:26;15.30;95.30
6627;DHT22;3349;49.830;8.748;2022-10-22T01:09:04;15.20;96.20
6627;DHT22;3349;49.830;8.748;2022-10-22T01:11:45;15.10;96.70
6627;DHT22;3349;49.830;8.748;2022-10-22T01:14:21;15.10;96.70
6627;DHT22;3349;49.830;8.748;2022-10-22T01:16:55;15.10;98.50
6627;DHT22;3349;49.830;8.748;2022-10-22T01:22:23;15.00;99.90
6627;DHT22;3349;49.830;8.748;2022-10-22T01:24:56;14.80;99.90
6627;DHT22;3349;49.830;8.748;2022-10-22T01:27:30;14.70;99.90
6627;DHT22;3349;49.830;8.748;2022-10-22T01:30:04;14.70;99.90
6627;DHT22;3349;49.830;8.748;2022-10-22T01:32:35;14.60;99.90
6627;DHT22;3349;49.830;8.748;2022-10-22T01:35:05;14.60;99.90
6627;DHT22;3349;49.830;8.748;2022-10-22T01:37:36;14.60;99.90
6627;DHT22;3349;49.830;8.748;2022-10-22T01:40:05;14.50;99.90
6627;DHT22;3349;49.830;8.748;2022-10-22T01:42:33;14.50;99.90
6627;DHT22;3349;49.830;8.748;2022-10-22T01:44:59;14.50;99.90
6627;DHT22;3349;49.830;8.748;2022-10-22T01:47:36;14.50;99.90
6627;DHT22;3349;49.830;8.748;2022-10-22T01:50:22;14.40;99.90
6627;DHT22;3349;49.830;8.748;2022-10-22T01:53:14;14.40;99.90
6627;DHT22;3349;49.830;8.748;2022-10-22T01:55:51;14.40;99.90
6627;DHT22;3349;49.830;8.748;2022-10-22T01:58:31;14.40;99.90
6627;DHT22;3349;49.830;8.748;2022-10-22T02:01:05;14.30;99.90
6627;DHT22;3349;49.830;8.748;2022-10-22T02:03:39;14.30;99.90
6627;DHT22;3349;49.830;8.748;2022-10-22T02:06:11;14.20;99.90
6627;DHT22;3349;49.830;8.748;2022-10-22T02:08:40;14.20;99.90
6627;DHT22;3349;49.830;8.748;2022-10-22T02:11:07;14.20;99.90
6627;DHT22;3349;49.830;8.748;2022-10-22T02:13:38;14.20;99.90
6627;DHT22;3349;49.830;8.748;2022-10-22T02:16:09;14.20;99.90
6627;DHT22;3349;49.830;8.748;2022-10-22T02:18:39;14.10;99.90
6627;DHT22;3349;49.830;8.748;2022-10-22T02:21:08;14.10;99.90
6627;DHT22;3349;49.830;8.748;2022-10-22T02:23:35;14.10;99.90
6627;DHT22;3349;49.830;8.748;2022-10-22T02:26:05;14.10;99.90
6627;DHT22;3349;49.830;8.748;2022-10-22T02:28:36;14.10;99.90
6627;DHT22;3349;49.830;8.748;2022-10-22T02:31:11;14.10;99.90
6627;DHT22;3349;49.830;8.748;2022-10-22T02:33:43;14.10;99.90
6627;DHT22;3349;49.830;8.748;2022-10-22T02:36:11;14.20;99.90
6627;DHT22;3349;49.830;8.748;2022-10-22T02:38:39;14.20;99.90
6627;DHT22;3349;49.830;8.748;2022-10-22T02:41:07;14.20;99.90
6627;DHT22;3349;49.830;8.748;2022-10-22T02:43:39;14.20;99.90
6627;DHT22;3349;49.830;8.748;2022-10-22T02:46:06;14.10;99.90
6627;DHT22;3349;49.830;8.748;2022-10-22T02:48:33;14.10;99.90
6627;DHT22;3349;49.830;8.748;2022-10-22T02:51:01;14.10;99.90
6627;DHT22;3349;49.830;8.748;2022-10-22T02:53:27;14.10;99.90
6627;DHT22;3349;49.830;8.748;2022-10-22T02:55:54;14.20;99.90
6627;DHT22;3349;49.830;8.748;2022-10-22T02:58:21;14.10;99.90
6627;DHT22;3349;49.830;8.748;2022-10-22T03:00:47;14.10;99.90
6627;DHT22;3349;49.830;8.748;2022-10-22T03:03:14;14.10;99.90
6627;DHT22;3349;49.830;8.748;2022-10-22T03:05:41;14.00;99.90
6627;DHT22;3349;49.830;8.748;2022-10-22T03:08:09;14.00;99.90
6627;DHT22;3349;49.830;8.748;2022-10-22T03:10:36;14.00;99.90
6627;DHT22;3349;49.830;8.748;2022-10-22T03:13:02;14.00;99.90
6627;DHT22;3349;49.830;8.748;2022-10-22T03:15:29;14.00;99.90
6627;DHT22;3349;49.830;8.748;2022-10-22T03:17:56;14.00;99.90
6627;DHT22;3349;49.830;8.748;2022-10-22T03:20:23;14.00;99.90
6627;DHT22;3349;49.830;8.748;2022-10-22T03:22:49;14.00;99.90
6627;DHT22;3349;49.830;8.748;2022-10-22T03:25:20;13.90;99.90
6627;DHT22;3349;49.830;8.748;2022-10-22T03:27:48;13.90;99.90
6627;DHT22;3349;49.830;8.748;2022-10-22T03:30:16;13.90;99.90
6627;DHT22;3349;49.830;8.748;2022-10-22T03:32:43;13.90;99.90
6627;DHT22;3349;49.830;8.748;2022-10-22T03:35:10;13.90;99.90
6627;DHT22;3349;49.830;8.748;2022-10-22T03:37:37;13.90;99.90
6627;DHT22;3349;49.830;8.748;2022-10-22T03:40:06;13.80;99.90
6627;DHT22;3349;49.830;8.748;2022-10-22T03:42:34;13.80;99.90
6627;DHT22;3349;49.830;8.748;2022-10-22T03:45:01;13.80;99.90
6627;DHT22;3349;49.830;8.748;2022-10-22T03:47:28;13.80;99.90
6627;DHT22;3349;49.830;8.748;2022-10-22T03:49:54;13.80;99.90
6627;DHT22;3349;49.830;8.748;2022-10-22T03:52:21;13.70;99.90
6627;DHT22;3349;49.830;8.748;2022-10-22T03:54:47;13.70;99.90
6627;DHT22;3349;49.830;8.748;2022-10-22T03:57:14;13.60;99.90
6627;DHT22;3349;49.830;8.748;2022-10-22T03:59:44;13.60;99.90
6627;DHT22;3349;49.830;8.748;2022-10-22T04:02:12;13.60;99.90
6627;DHT22;3349;49.830;8.748;2022-10-22T04:04:39;13.60;99.90
6627;DHT22;3349;49.830;8.748;2022-10-22T04:07:06;13.60;99.90
6627;DHT22;3349;49.830;8.748;2022-10-22T04:09:34;13.60;99.90
6627;DHT22;3349;49.830;8.748;2022-10-22T04:12:01;13.60;99.90
6627;DHT22;3349;49.830;8.748;2022-10-22T04:14:29;13.60;99.90
6627;DHT22;3349;49.830;8.748;2022-10-22T04:16:58;13.60;99.90
6627;DHT22;3349;49.830;8.748;2022-10-22T04:19:25;13.60;99.90
6627;DHT22;3349;49.830;8.748;2022-10-22T04:21:51;13.50;99.90
6627;DHT22;3349;49.830;8.748;2022-10-22T04:24:18;13.50;99.90
6627;DHT22;3349;49.830;8.748;2022-10-22T04:26:45;13.50;99.90
6627;DHT22;3349;49.830;8.748;2022-10-22T04:29:12;13.60;99.90
6627;DHT22;3349;49.830;8.748;2022-10-22T04:31:38;13.60;99.90
6627;DHT22;3349;49.830;8.748;2022-10-22T04:34:06;13.60;99.90
6627;DHT22;3349;49.830;8.748;2022-10-22T04:36:33;13.60;99.90
6627;DHT22;3349;49.830;8.748;2022-10-22T04:39:00;13.60;99.90
6627;DHT22;3349;49.830;8.748;2022-10-22T04:41:29;13.60;99.90
6627;DHT22;3349;49.830;8.748;2022-10-22T04:43:56;13.60;99.90
6627;DHT22;3349;49.830;8.748;2022-10-22T04:46:25;13.50;99.90
6627;DHT22;3349;49.830;8.748;2022-10-22T04:48:52;13.50;99.90
6627;DHT22;3349;49.830;8.748;2022-10-22T04:51:22;13.50;99.90
6627;DHT22;3349;49.830;8.748;2022-10-22T04:53:49;13.50;99.90
6627;DHT22;3349;49.830;8.748;2022-10-22T04:56:17;13.50;99.90
6627;DHT22;3349;49.830;8.748;2022-10-22T04:58:45;13.50;99.90
6627;DHT22;3349;49.830;8.748;2022-10-22T05:01:14;13.50;99.90
6627;DHT22;3349;49.830;8.748;2022-10-22T05:03:42;13.50;99.90
6627;DHT22;3349;49.830;8.748;2022-10-22T05:06:09;13.50;99.90
6627;DHT22;3349;49.830;8.748;2022-10-22T05:08:37;13.40;99.90
6627;DHT22;3349;49.830;8.748;2022-10-22T05:11:10;13.40;99.90
6627;DHT22;3349;49.830;8.748;2022-10-22T05:13:37;13.40;99.90
6627;DHT22;3349;49.830;8.748;2022-10-22T05:16:04;13.40;99.90
6627;DHT22;3349;49.830;8.748;2022-10-22T05:18:33;13.40;99.90
6627;DHT22;3349;49.830;8.748;2022-10-22T05:21:00;13.40;99.90
6627;DHT22;3349;49.830;8.748;2022-10-22T05:23:27;13.30;99.90
6627;DHT22;3349;49.830;8.748;2022-10-22T05:25:55;13.30;99.90
6627;DHT22;3349;49.830;8.748;2022-10-22T05:28:22;13.30;99.90
6627;DHT22;3349;49.830;8.748;2022-10-22T05:30:53;13.20;99.90
6627;DHT22;3349;49.830;8.748;2022-10-22T05:33:19;13.30;99.90
6627;DHT22;3349;49.830;8.748;2022-10-22T05:35:47;13.30;99.90
6627;DHT22;3349;49.830;8.748;2022-10-22T05:38:14;13.40;99.90
6627;DHT22;3349;49.830;8.748;2022-10-22T05:40:41;13.40;99.90
6627;DHT22;3349;49.830;8.748;2022-10-22T05:43:09;13.50;99.90
6627;DHT22;3349;49.830;8.748;2022-10-22T05:45:36;13.50;99.90
6627;DHT22;3349;49.830;8.748;2022-10-22T05:48:04;13.60;99.90
6627;DHT22;3349;49.830;8.748;2022-10-22T05:50:34;13.70;99.90
6627;DHT22;3349;49.830;8.748;2022-10-22T05:53:01;13.70;99.90
6627;DHT22;3349;49.830;8.748;2022-10-22T05:55:28;13.80;99.90
6627;DHT22;3349;49.830;8.748;2022-10-22T05:57:54;13.80;99.90
6627;DHT22;3349;49.830;8.748;2022-10-22T06:00:22;13.90;99.90
6627;DHT22;3349;49.830;8.748;2022-10-22T06:02:49;13.90;99.90
6627;DHT22;3349;49.830;8.748;2022-10-22T06:05:16;14.10;98.70
6627;DHT22;3349;49.830;8.748;2022-10-22T06:07:43;14.10;97.60
6627;DHT22;3349;49.830;8.748;2022-10-22T06:10:13;14.10;96.90
6627;DHT22;3349;49.830;8.748;2022-10-22T06:12:40;14.10;96.20
6627;DHT22;3349;49.830;8.748;2022-10-22T06:15:09;14.10;96.10
6627;DHT22;3349;49.830;8.748;2022-10-22T06:17:38;14.20;96.20
6627;DHT22;3349;49.830;8.748;2022-10-22T06:20:06;14.10;95.60
6627;DHT22;3349;49.830;8.748;2022-10-22T06:22:33;14.20;97.20
6627;DHT22;3349;49.830;8.748;2022-10-22T06:24:59;14.10;97.00
6627;DHT22;3349;49.830;8.748;2022-10-22T06:27:26;14.20;99.90
6627;DHT22;3349;49.830;8.748;2022-10-22T06:29:53;14.20;99.20
6627;DHT22;3349;49.830;8.748;2022-10-22T06:32:20;14.20;99.90
6627;DHT22;3349;49.830;8.748;2022-10-22T06:34:48;14.20;99.90
6627;DHT22;3349;49.830;8.748;2022-10-22T06:37:15;14.20;99.90
6627;DHT22;3349;49.830;8.748;2022-10-22T06:39:42;14.20;99.70
6627;DHT22;3349;49.830;8.748;2022-10-22T06:42:08;14.20;99.90
6627;DHT22;3349;49.830;8.748;2022-10-22T06:44:35;14.20;99.90
6627;DHT22;3349;49.830;8.748;2022-10-22T06:47:02;14.20;99.90
6627;DHT22;3349;49.830;8.748;2022-10-22T06:49:29;14.20;99.40
6627;DHT22;3349;49.830;8.748;2022-10-22T06:51:57;14.20;99.70
6627;DHT22;3349;49.830;8.748;2022-10-22T06:54:23;14.20;99.20
6627;DHT22;3349;49.830;8.748;2022-10-22T06:56:50;14.20;99.70
6627;DHT22;3349;49.830;8.748;2022-10-22T06:59:17;14.20;98.10
6627;DHT22;3349;49.830;8.748;2022-10-22T07:01:44;14.10;99.00
6627;DHT22;3349;49.830;8.748;2022-10-22T07:04:10;14.10;99.50
6627;DHT22;3349;49.830;8.748;2022-10-22T07:06:37;14.10;99.10
6627;DHT22;3349;49.830;8.748;2022-10-22T07:09:05;14.00;98.40
6627;DHT22;3349;49.830;8.748;2022-10-22T07:11:38;14.00;99.00
6627;DHT22;3349;49.830;8.748;2022-10-22T07:14:05;14.00;99.70
6627;DHT22;3349;49.830;8.748;2022-10-22T07:16:32;14.00;99.30
6627;DHT22;3349;49.830;8.748;2022-10-22T07:18:59;14.00;99.90
6627;DHT22;3349;49.830;8.748;2022-10-22T07:21:26;13.90;99.90
6627;DHT22;3349;49.830;8.748;2022-10-22T07:23:53;13.90;99.90
6627;DHT22;3349;49.830;8.748;2022-10-22T07:26:25;13.90;99.90
6627;DHT22;3349;49.830;8.748;2022-10-22T07:28:55;14.00;99.10
6627;DHT22;3349;49.830;8.748;2022-10-22T07:31:22;14.00;98.90
6627;DHT22;3349;49.830;8.748;2022-10-22T07:33:48;14.00;98.40
6627;DHT22;3349;49.830;8.748;2022-10-22T07:36:16;14.00;99.70
6627;DHT22;3349;49.830;8.748;2022-10-22T07:38:43;13.90;99.60
6627;DHT22;3349;49.830;8.748;2022-10-22T07:41:10;14.00;98.90
6627;DHT22;3349;49.830;8.748;2022-10-22T07:43:38;14.00;98.10
6627;DHT22;3349;49.830;8.748;2022-10-22T07:46:05;14.00;98.70
6627;DHT22;3349;49.830;8.748;2022-10-22T07:48:33;14.00;98.90
6627;DHT22;3349;49.830;8.748;2022-10-22T07:51:00;14.00;98.80
6627;DHT22;3349;49.830;8.748;2022-10-22T07:53:27;14.00;98.40
6627;DHT22;3349;49.830;8.748;2022-10-22T07:55:54;14.10;97.80
6627;DHT22;3349;49.830;8.748;2022-10-22T07:58:21;14.10;97.90
6627;DHT22;3349;49.830;8.748;2022-10-22T08:00:50;14.20;95.40
6627;DHT22;3349;49.830;8.748;2022-10-22T08:03:17;14.20;97.20
6627;DHT22;3349;49.830;8.748;2022-10-22T08:05:44;14.30;95.80
6627;DHT22;3349;49.830;8.748;2022-10-22T08:08:11;14.40;94.70
6627;DHT22;3349;49.830;8.748;2022-10-22T08:10:39;14.50;94.00
6627;DHT22;3349;49.830;8.748;2022-10-22T08:13:06;14.60;92.40
6627;DHT22;3349;49.830;8.748;2022-10-22T08:15:33;14.60;92.20
6627;DHT22;3349;49.830;8.748;2022-10-22T08:18:01;14.70;91.50
6627;DHT22;3349;49.830;8.748;2022-10-22T08:20:28;14.60;92.10
6627;DHT22;3349;49.830;8.748;2022-10-22T08:22:55;14.70;93.00
6627;DHT22;3349;49.830;8.748;2022-10-22T08:25:22;14.70;92.50
6627;DHT22;3349;49.830;8.748;2022-10-22T08:27:49;14.80;91.90
6627;DHT22;3349;49.830;8.748;2022-10-22T08:30:16;14.80;91.80
6627;DHT22;3349;49.830;8.748;2022-10-22T08:32:43;14.90;90.10
6627;DHT22;3349;49.830;8.748;2022-10-22T08:35:11;15.00;88.00
6627;DHT22;3349;49.830;8.748;2022-10-22T08:37:37;15.10;88.00
6627;DHT22;3349;49.830;8.748;2022-10-22T08:40:05;15.10;88.10
6627;DHT22;3349;49.830;8.748;2022-10-22T08:45:29;15.20;87.40
6627;DHT22;3349;49.830;8.748;2022-10-22T08:48:08;15.20;89.50
6627;DHT22;3349;49.830;8.748;2022-10-22T08:50:42;15.30;84.30
6627;DHT22;3349;49.830;8.748;2022-10-22T08:53:12;15.40;82.10
6627;DHT22;3349;49.830;8.748;2022-10-22T08:55:41;15.50;80.80
6627;DHT22;3349;49.830;8.748;2022-10-22T08:58:16;15.50;82.30
6627;DHT22;3349;49.830;8.748;2022-10-22T09:00:49;15.60;80.50
6627;DHT22;3349;49.830;8.748;2022-10-22T09:03:37;15.60;76.40
6627;DHT22;3349;49.830;8.748;2022-10-22T09:06:10;15.80;74.40
6627;DHT22;3349;49.830;8.748;2022-10-22T09:08:38;15.80;74.20
6627;DHT22;3349;49.830;8.748;2022-10-22T09:11:15;15.90;73.30
6627;DHT22;3349;49.830;8.748;2022-10-22T09:13:44;16.00;84.50
6627;DHT22;3349;49.830;8.748;2022-10-22T09:16:15;16.10;79.70
6627;DHT22;3349;49.830;8.748;2022-10-22T09:18:50;16.10;79.10
6627;DHT22;3349;49.830;8.748;2022-10-22T09:21:25;16.20;79.00
6627;DHT22;3349;49.830;8.748;2022-10-22T09:24:03;16.20;80.20
6627;DHT22;3349;49.830;8.748;2022-10-22T09:26:32;16.20;80.70
6627;DHT22;3349;49.830;8.748;2022-10-22T09:29:00;16.40;80.30
6627;DHT22;3349;49.830;8.748;2022-10-22T09:31:29;16.40;80.00
6627;DHT22;3349;49.830;8.748;2022-10-22T09:33:57;16.40;82.30
6627;DHT22;3349;49.830;8.748;2022-10-22T09:36:31;16.50;81.30
6627;DHT22;3349;49.830;8.748;2022-10-22T09:38:58;16.60;84.20
6627;DHT22;3349;49.830;8.748;2022-10-22T09:41:27;16.80;83.00
6627;DHT22;3349;49.830;8.748;2022-10-22T09:43:55;17.00;82.50
6627;DHT22;3349;49.830;8.748;2022-10-22T09:46:24;17.10;81.90
6627;DHT22;3349;49.830;8.748;2022-10-22T09:49:02;17.10;82.70
6627;DHT22;3349;49.830;8.748;2022-10-22T09:51:51;17.30;77.00
6627;DHT22;3349;49.830;8.748;2022-10-22T09:54:20;17.60;77.60
6627;DHT22;3349;49.830;8.748;2022-10-22T09:56:54;17.80;72.90
6627;DHT22;3349;49.830;8.748;2022-10-22T09:59:29;17.90;73.00
6627;DHT22;3349;49.830;8.748;2022-10-22T10:02:05;18.10;71.60
6627;DHT22;3349;49.830;8.748;2022-10-22T10:04:34;18.20;72.10
6627;DHT22;3349;49.830;8.748;2022-10-22T10:07:02;18.40;71.60
6627;DHT22;3349;49.830;8.748;2022-10-22T10:09:30;18.70;69.20
6627;DHT22;3349;49.830;8.748;2022-10-22T10:12:09;18.80;67.30
6627;DHT22;3349;49.830;8.748;2022-10-22T10:14:44;19.00;66.20
6627;DHT22;3349;49.830;8.748;2022-10-22T10:17:20;19.30;64.40
6627;DHT22;3349;49.830;8.748;2022-10-22T10:19:56;19.50;63.60
6627;DHT22;3349;49.830;8.748;2022-10-22T10:22:45;19.60;59.00
6627;DHT22;3349;49.830;8.748;2022-10-22T10:25:25;20.00;60.10
6627;DHT22;3349;49.830;8.748;2022-10-22T10:27:58;20.30;57.40
6627;DHT22;3349;49.830;8.748;2022-10-22T10:30:27;20.30;56.90
6627;DHT22;3349;49.830;8.748;2022-10-22T10:33:09;20.40;55.70
6627;DHT22;3349;49.830;8.748;2022-10-22T10:35:45;20.30;57.10
6627;DHT22;3349;49.830;8.748;2022-10-22T10:38:31;20.60;55.00
6627;DHT22;3349;49.830;8.748;2022-10-22T10:41:12;20.70;54.90
6627;DHT22;3349;49.830;8.748;2022-10-22T10:43:54;20.60;54.70
6627;DHT22;3349;49.830;8.748;2022-10-22T10:46:31;21.20;54.20
6627;DHT22;3349;49.830;8.748;2022-10-22T10:49:05;22.20;51.80
6627;DHT22;3349;49.830;8.748;2022-10-22T10:51:40;23.20;48.70
6627;DHT22;3349;49.830;8.748;2022-10-22T10:54:28;24.60;45.30
6627;DHT22;3349;49.830;8.748;2022-10-22T10:56:59;25.40;44.70
6627;DHT22;3349;49.830;8.748;2022-10-22T10:59:40;26.40;43.10
6627;DHT22;3349;49.830;8.748;2022-10-22T11:05:11;28.20;40.40
6627;DHT22;3349;49.830;8.748;2022-10-22T11:07:45;27.70;40.40
6627;DHT22;3349;49.830;8.748;2022-10-22T11:10:26;27.10;40.90
6627;DHT22;3349;49.830;8.748;2022-10-22T11:12:58;25.50;44.60
6627;DHT22;3349;49.830;8.748;2022-10-22T11:15:30;24.50;46.00
6627;DHT22;3349;49.830;8.748;2022-10-22T11:18:03;23.60;48.10
6627;DHT22;3349;49.830;8.748;2022-10-22T11:20:40;22.90;50.70
6627;DHT22;3349;49.830;8.748;2022-10-22T11:23:15;22.40;52.10
6627;DHT22;3349;49.830;8.748;2022-10-22T11:25:45;21.80;54.20
6627;DHT22;3349;49.830;8.748;2022-10-22T11:28:14;21.80;54.30
6627;DHT22;3349;49.830;8.748;2022-10-22T11:30:45;22.20;55.30
6627;DHT22;3349;49.830;8.748;2022-10-22T11:33:17;23.00;52.40
6627;DHT22;3349;49.830;8.748;2022-10-22T11:35:45;23.50;51.60
6627;DHT22;3349;49.830;8.748;2022-10-22T11:38:15;25.00;47.70
6627;DHT22;3349;49.830;8.748;2022-10-22T11:40:47;26.30;45.80
6627;DHT22;3349;49.830;8.748;2022-10-22T11:43:27;27.30;41.10
6627;DHT22;3349;49.830;8.748;2022-10-22T11:46:00;28.10;39.40
6627;DHT22;3349;49.830;8.748;2022-10-22T11:48:33;29.20;38.20
6627;DHT22;3349;49.830;8.748;2022-10-22T11:51:01;28.40;37.80
6627;DHT22;3349;49.830;8.748;2022-10-22T11:53:31;27.10;39.80
6627;DHT22;3349;49.830;8.748;2022-10-22T11:56:03;26.50;41.40
6627;DHT22;3349;49.830;8.748;2022-10-22T11:58:47;25.80;42.20
6627;DHT22;3349;49.830;8.748;2022-10-22T12:01:23;24.60;44.30
6627;DHT22;3349;49.830;8.748;2022-10-22T12:03:51;23.70;47.00
6627;DHT22;3349;49.830;8.748;2022-10-22T12:06:21;22.70;49.20
6627;DHT22;3349;49.830;8.748;2022-10-22T12:08:57;22.10;50.70
6627;DHT22;3349;49.830;8.748;2022-10-22T12:11:27;21.30;52.10
6627;DHT22;3349;49.830;8.748;2022-10-22T12:14:16;20.80;54.10
6627;DHT22;3349;49.830;8.748;2022-10-22T12:16:46;20.70;55.20
6627;DHT22;3349;49.830;8.748;2022-10-22T12:19:16;20.40;55.90
6627;DHT22;3349;49.830;8.748;2022-10-22T12:21:46;20.50;56.80
6627;DHT22;3349;49.830;8.748;2022-10-22T12:24:15;20.70;57.50
6627;DHT22;3349;49.830;8.748;2022-10-22T12:26:44;20.80;56.90
6627;DHT22;3349;49.830;8.748;2022-10-22T12:29:13;21.10;56.40
6627;DHT22;3349;49.830;8.748;2022-10-22T12:31:41;21.00;55.90
6627;DHT22;3349;49.830;8.748;2022-10-22T12:34:12;21.00;54.80
6627;DHT22;3349;49.830;8.748;2022-10-22T12:36:39;20.80;56.50
6627;DHT22;3349;49.830;8.748;2022-10-22T12:39:11;20.60;56.90
6627;DHT22;3349;49.830;8.748;2022-10-22T12:41:39;20.50;57.30
6627;DHT22;3349;49.830;8.748;2022-10-22T12:44:11;20.40;57.20
6627;DHT22;3349;49.830;8.748;2022-10-22T12:46:38;20.10;57.90
6627;DHT22;3349;49.830;8.748;2022-10-22T12:49:07;20.00;58.00
6627;DHT22;3349;49.830;8.748;2022-10-22T12:51:37;20.00;58.20
6627;DHT22;3349;49.830;8.748;2022-10-22T12:54:07;19.80;57.80
6627;DHT22;3349;49.830;8.748;2022-10-22T12:56:35;19.60;59.00
6627;DHT22;3349;49.830;8.748;2022-10-22T12:59:08;19.40;59.60
6627;DHT22;3349;49.830;8.748;2022-10-22T13:01:41;19.50;60.10
6627;DHT22;3349;49.830;8.748;2022-10-22T13:04:19;19.40;61.20
6627;DHT22;3349;49.830;8.748;2022-10-22T13:06:47;19.50;62.40
6627;DHT22;3349;49.830;8.748;2022-10-22T13:09:17;19.40;61.90
6627;DHT22;3349;49.830;8.748;2022-10-22T13:11:49;19.30;62.50
6627;DHT22;3349;49.830;8.748;2022-10-22T13:14:25;19.40;62.20
6627;DHT22;3349;49.830;8.748;2022-10-22T13:17:06;19.40;62.70
6627;DHT22;3349;49.830;8.748;2022-10-22T13:19:37;19.30;64.60
6627;DHT22;3349;49.830;8.748;2022-10-22T13:22:20;19.20;64.00
6627;DHT22;3349;49.830;8.748;2022-10-22T13:24:49;19.20;64.60
6627;DHT22;3349;49.830;8.748;2022-10-22T13:27:16;19.10;62.50
6627;DHT22;3349;49.830;8.748;2022-10-22T13:29:44;19.00;63.30
6627;DHT22;3349;49.830;8.748;2022-10-22T13:32:24;18.90;63.60
6627;DHT22;3349;49.830;8.748;2022-10-22T13:34:52;18.90;64.70
6627;DHT22;3349;49.830;8.748;2022-10-22T13:37:19;18.90;65.50
6627;DHT22;3349;49.830;8.748;2022-10-22T13:39:46;18.80;65.10
6627;DHT22;3349;49.830;8.748;2022-10-22T13:42:12;18.70;65.30
6627;DHT22;3349;49.830;8.748;2022-10-22T13:44:39;18.60;66.40
6627;DHT22;3349;49.830;8.748;2022-10-22T13:47:23;18.50;67.50
6627;DHT22;3349;49.830;8.748;2022-10-22T13:49:51;18.50;68.10
6627;DHT22;3349;49.830;8.748;2022-10-22T13:52:28;18.60;69.00
6627;DHT22;3349;49.830;8.748;2022-10-22T13:54:55;18.70;70.50
6627;DHT22;3349;49.830;8.748;2022-10-22T13:57:22;18.70;69.80
6627;DHT22;3349;49.830;8.748;2022-10-22T13:59:48;18.80;71.10
6627;DHT22;3349;49.830;8.748;2022-10-22T14:02:17;18.80;72.00
6627;DHT22;3349;49.830;8.748;2022-10-22T14:04:44;18.90;72.70
6627;DHT22;3349;49.830;8.748;2022-10-22T14:07:13;18.90;73.10
6627;DHT22;3349;49.830;8.748;2022-10-22T14:09:40;19.00;72.10
6627;DHT22;3349;49.830;8.748;2022-10-22T14:12:11;19.00;70.50
6627;DHT22;3349;49.830;8.748;2022-10-22T14:14:38;19.00;70.00
6627;DHT22;3349;49.830;8.748;2022-10-22T14:17:05;19.00;70.40
6627;DHT22;3349;49.830;8.748;2022-10-22T14:19:35;19.00;70.30
6627;DHT22;3349;49.830;8.748;2022-10-22T14:22:02;19.10;71.00
6627;DHT22;3349;49.830;8.748;2022-10-22T14:24:29;19.10;70.10
6627;DHT22;3349;49.830;8.748;2022-10-22T14:26:56;19.20;68.20
6627;DHT22;3349;49.830;8.748;2022-10-22T14:29:23;19.30;66.70
6627;DHT22;3349;49.830;8.748;2022-10-22T14:31:50;19.20;66.10
6627;DHT22;3349;49.830;8.748;2022-10-22T14:34:17;19.10;68.00
6627;DHT22;3349;49.830;8.748;2022-10-22T14:36:45;18.90;68.60
6627;DHT22;3349;49.830;8.748;2022-10-22T14:39:11;18.70;70.90
6627;DHT22;3349;49.830;8.748;2022-10-22T14:41:38;18.40;72.10
6627;DHT22;3349;49.830;8.748;2022-10-22T14:44:06;18.30;74.00
6627;DHT22;3349;49.830;8.748;2022-10-22T14:46:37;18.10;76.00
6627;DHT22;3349;49.830;8.748;2022-10-22T14:49:04;18.10;77.50
6627;DHT22;3349;49.830;8.748;2022-10-22T14:51:31;18.10;79.70
6627;DHT22;3349;49.830;8.748;2022-10-22T14:53:59;18.10;81.20
6627;DHT22;3349;49.830;8.748;2022-10-22T14:56:26;18.20;81.30
6627;DHT22;3349;49.830;8.748;2022-10-22T14:58:52;18.20;82.10
6627;DHT22;3349;49.830;8.748;2022-10-22T15:01:19;18.30;81.00
6627;DHT22;3349;49.830;8.748;2022-10-22T15:03:46;18.40;80.80
6627;DHT22;3349;49.830;8.748;2022-10-22T15:06:13;18.40;82.00
6627;DHT22;3349;49.830;8.748;2022-10-22T15:08:39;18.40;81.90
6627;DHT22;3349;49.830;8.748;2022-10-22T15:11:10;18.50;79.50
6627;DHT22;3349;49.830;8.748;2022-10-22T15:13:37;18.60;78.50
6627;DHT22;3349;49.830;8.748;2022-10-22T15:16:07;18.70;78.40
6627;DHT22;3349;49.830;8.748;2022-10-22T15:18:34;18.90;78.40
6627;DHT22;3349;49.830;8.748;2022-10-22T15:21:03;19.10;76.60
6627;DHT22;3349;49.830;8.748;2022-10-22T15:23:30;19.40;76.30
6627;DHT22;3349;49.830;8.748;2022-10-22T15:25:57;19.60;74.70
6627;DHT22;3349;49.830;8.748;2022-10-22T15:28:25;19.70;73.30
6627;DHT22;3349;49.830;8.748;2022-10-22T15:30:53;19.80;71.50
6627;DHT22;3349;49.830;8.748;2022-10-22T15:33:20;19.60;70.70
6627;DHT22;3349;49.830;8.748;2022-10-22T15:35:47;19.40;71.90
6627;DHT22;3349;49.830;8.748;2022-10-22T15:38:14;19.10;73.30
6627;DHT22;3349;49.830;8.748;2022-10-22T15:40:40;18.80;75.30
6627;DHT22;3349;49.830;8.748;2022-10-22T15:43:08;18.60;77.40
6627;DHT22;3349;49.830;8.748;2022-10-22T15:45:36;18.30;80.20
6627;DHT22;3349;49.830;8.748;2022-10-22T15:48:04;18.10;82.20
6627;DHT22;3349;49.830;8.748;2022-10-22T15:50:31;17.90;85.80
6627;DHT22;3349;49.830;8.748;2022-10-22T15:52:57;17.70;89.10
6627;DHT22;3349;49.830;8.748;2022-10-22T15:55:24;17.40;93.30
6627;DHT22;3349;49.830;8.748;2022-10-22T15:57:53;17.10;94.30
6627;DHT22;3349;49.830;8.748;2022-10-22T16:00:20;16.90;96.50
6627;DHT22;3349;49.830;8.748;2022-10-22T16:02:48;16.70;98.40
6627;DHT22;3349;49.830;8.748;2022-10-22T16:05:15;16.50;99.60
6627;DHT22;3349;49.830;8.748;2022-10-22T16:07:42;16.40;99.90
6627;DHT22;3349;49.830;8.748;2022-10-22T16:10:09;16.20;99.90
6627;DHT22;3349;49.830;8.748;2022-10-22T16:12:37;16.10;99.90
6627;DHT22;3349;49.830;8.748;2022-10-22T16:15:06;16.00;99.90
6627;DHT22;3349;49.830;8.748;2022-10-22T16:17:33;15.80;99.90
6627;DHT22;3349;49.830;8.748;2022-10-22T16:20:01;15.70;99.90
6627;DHT22;3349;49.830;8.748;2022-10-22T16:22:28;15.50;99.90
6627;DHT22;3349;49.830;8.748;2022-10-22T16:24:55;15.40;99.90
6627;DHT22;3349;49.830;8.748;2022-10-22T16:27:21;15.30;99.90